createdAt,value
2023-01-08T00:00:32.860Z,99593.59
2023-01-08T00:05:37.106Z,99575.28
2023-01-08T00:10:40.286Z,99574.63
2023-01-08T00:15:43.004Z,99567.75
2023-01-08T00:20:47.895Z,99569.53
2023-01-08T00:25:50.921Z,99574.25
2023-01-08T00:30:53.612Z,99571.81
2023-01-08T00:35:57.747Z,99570.00
2023-01-08T00:41:00.613Z,99558.25
2023-01-08T00:46:03.479Z,99559.59
2023-01-08T00:51:08.924Z,99543.44
2023-01-08T00:56:11.723Z,99548.53
2023-01-08T01:01:16.174Z,99533.50
2023-01-08T01:06:20.501Z,99539.38
2023-01-08T01:11:24.801Z,99536.16
2023-01-08T01:16:27.566Z,99522.59
2023-01-08T01:21:33.488Z,99511.81
2023-01-08T01:26:36.167Z,99517.69
2023-01-08T01:31:38.888Z,99518.38
2023-01-08T01:36:43.000Z,99517.56
2023-01-08T01:41:47.358Z,99505.59
2023-01-08T01:46:50.833Z,99497.22
2023-01-08T01:51:57.478Z,99498.38
2023-01-08T01:57:01.370Z,99491.50
2023-01-08T02:02:04.222Z,99493.81
2023-01-08T02:07:12.809Z,99484.78
2023-01-08T02:12:19.061Z,99484.13
2023-01-08T02:17:26.242Z,99476.72
2023-01-08T02:22:39.117Z,99480.19
2023-01-08T02:27:46.440Z,99481.47
2023-01-08T02:32:49.188Z,99474.28
2023-01-08T02:37:51.919Z,99475.25
2023-01-08T02:43:01.026Z,99464.13
2023-01-08T02:48:08.802Z,99468.81
2023-01-08T02:53:14.301Z,99442.16
2023-01-08T02:58:19.152Z,99432.00
2023-01-08T03:03:24.024Z,99423.53
2023-01-08T03:08:27.267Z,99423.09
2023-01-08T03:13:41.354Z,99426.03
2023-01-08T03:18:48.245Z,99419.38
2023-01-08T03:23:51.852Z,99415.13
2023-01-08T03:28:57.582Z,99413.66
2023-01-08T03:34:01.383Z,99424.13
2023-01-08T03:39:09.318Z,99420.22
2023-01-08T03:44:13.340Z,99422.53
2023-01-08T03:49:16.668Z,99408.16
2023-01-08T03:54:20.957Z,99422.69
2023-01-08T03:59:25.391Z,99419.44
2023-01-08T04:04:28.326Z,99409.47
2023-01-08T04:09:35.991Z,99399.81
2023-01-08T04:14:40.079Z,99411.78
2023-01-08T04:19:42.764Z,99412.75
2023-01-08T04:24:45.432Z,99406.84
2023-01-08T04:29:49.522Z,99416.34
2023-01-08T04:34:52.202Z,99407.81
2023-01-08T04:39:54.905Z,99415.03
2023-01-08T04:44:58.964Z,99398.34
2023-01-08T04:50:01.715Z,99401.94
2023-01-08T04:55:04.903Z,99396.88
2023-01-08T05:00:10.213Z,99398.81
2023-01-08T05:05:12.938Z,99388.19
2023-01-08T05:10:15.883Z,99394.06
2023-01-08T05:15:20.036Z,99389.00
2023-01-08T05:20:22.740Z,99388.53
2023-01-08T05:25:25.772Z,99372.97
2023-01-08T05:30:29.825Z,99380.00
2023-01-08T05:35:32.572Z,99376.59
2023-01-08T05:40:35.420Z,99370.03
2023-01-08T05:45:39.472Z,99361.19
2023-01-08T05:50:42.242Z,99360.88
2023-01-08T05:55:44.959Z,99359.88
2023-01-08T06:00:49.046Z,99358.88
2023-01-08T06:05:51.791Z,99351.69
2023-01-08T06:10:54.646Z,99364.97
2023-01-08T06:16:00.281Z,99367.72
2023-01-08T06:21:04.464Z,99373.28
2023-01-08T06:26:07.371Z,99368.06
2023-01-08T06:31:11.446Z,99373.97
2023-01-08T06:36:14.156Z,99375.13
2023-01-08T06:41:16.919Z,99373.16
2023-01-08T06:46:21.091Z,99372.81
2023-01-08T06:51:23.852Z,99372.13
2023-01-08T06:56:26.801Z,99374.28
2023-01-08T07:01:30.943Z,99375.13
2023-01-08T07:06:33.697Z,99362.69
2023-01-08T07:11:36.744Z,99360.19
2023-01-08T07:16:40.882Z,99364.63
2023-01-08T07:21:43.632Z,99356.59
2023-01-08T07:26:46.333Z,99342.72
2023-01-08T07:31:50.414Z,99353.00
2023-01-08T07:36:53.179Z,99356.44
2023-01-08T07:41:56.257Z,99344.34
2023-01-08T07:47:00.293Z,99341.06
2023-01-08T07:52:02.990Z,99327.81
2023-01-08T07:57:05.848Z,99315.69
2023-01-08T08:02:11.888Z,99300.16
2023-01-08T08:07:14.913Z,99306.38
2023-01-08T08:12:17.683Z,99307.34
2023-01-08T08:17:21.842Z,99295.72
2023-01-08T08:22:24.587Z,99311.44
2023-01-08T08:27:27.586Z,99320.94
2023-01-08T08:32:31.785Z,99332.88
2023-01-08T08:37:34.515Z,99329.94
2023-01-08T08:42:42.660Z,99336.97
2023-01-08T08:47:46.798Z,99336.31
2023-01-08T08:52:49.891Z,99331.09
2023-01-08T08:57:52.958Z,99330.75
2023-01-08T09:02:57.200Z,99322.72
2023-01-08T09:08:00.124Z,99318.16
2023-01-08T09:13:02.972Z,99323.53
2023-01-08T09:18:07.176Z,99321.41
2023-01-08T09:23:10.790Z,99327.16
2023-01-08T09:28:13.983Z,99324.34
2023-01-08T09:33:18.030Z,99325.81
2023-01-08T09:38:20.725Z,99335.00
2023-01-08T09:43:24.691Z,99329.91
2023-01-08T09:48:31.084Z,99317.47
2023-01-08T09:53:34.217Z,99325.19
2023-01-08T09:58:39.756Z,99329.44
2023-01-08T10:03:46.437Z,99328.63
2023-01-08T10:08:51.021Z,99324.84
2023-01-08T10:13:55.957Z,99319.75
2023-01-08T10:19:01.734Z,99303.03
2023-01-08T10:24:05.028Z,99301.75
2023-01-08T10:29:10.257Z,99303.06
2023-01-08T10:34:24.104Z,99301.41
2023-01-08T10:39:28.547Z,99291.72
2023-01-08T10:44:31.473Z,99300.25
2023-01-08T10:49:39.110Z,99294.19
2023-01-08T10:54:42.221Z,99296.66
2023-01-08T10:59:45.289Z,99281.44
2023-01-08T11:04:51.233Z,99264.22
2023-01-08T11:09:54.449Z,99262.06
2023-01-08T11:14:57.546Z,99247.31
2023-01-08T11:20:11.219Z,99242.25
2023-01-08T11:25:16.140Z,99242.41
2023-01-08T11:30:20.991Z,99233.75
2023-01-08T11:35:26.914Z,99218.66
2023-01-08T11:40:43.153Z,99210.97
2023-01-08T11:46:04.051Z,99206.69
2023-01-08T11:51:29.633Z,99193.78
2023-01-08T11:56:41.868Z,99182.66
2023-01-08T12:01:51.398Z,99172.16
2023-01-08T12:07:00.465Z,99172.34
2023-01-08T12:12:09.898Z,99172.50
2023-01-08T12:17:41.193Z,99161.69
2023-01-08T12:22:49.671Z,99174.28
2023-01-08T12:27:59.942Z,99175.75
2023-01-08T12:33:06.146Z,99172.16
2023-01-08T12:38:14.967Z,99180.47
2023-01-08T12:43:21.420Z,99171.44
2023-01-08T12:48:26.755Z,99171.28
2023-01-08T12:53:41.338Z,99160.97
2023-01-08T12:58:52.809Z,99165.41
2023-01-08T13:03:56.302Z,99154.72
2023-01-08T13:09:01.789Z,99131.31
2023-01-08T13:14:06.489Z,99135.91
2023-01-08T13:19:24.444Z,99121.19
2023-01-08T13:24:31.553Z,99118.72
2023-01-08T13:29:41.675Z,99121.34
2023-01-08T13:34:44.480Z,99120.34
2023-01-08T13:39:48.789Z,99114.75
2023-01-08T13:44:53.237Z,99103.28
2023-01-08T13:49:56.898Z,99096.88
2023-01-08T13:55:01.744Z,99091.47
2023-01-08T14:00:06.688Z,99086.06
2023-01-08T14:05:19.828Z,99084.25
2023-01-08T14:10:26.167Z,99086.88
2023-01-08T14:15:29.871Z,99086.41
2023-01-08T14:20:34.338Z,99080.16
2023-01-08T14:25:38.633Z,99082.63
2023-01-08T14:30:48.870Z,99090.31
2023-01-08T14:35:52.202Z,99094.41
2023-01-08T14:41:02.121Z,99091.06
2023-01-08T14:46:05.113Z,99103.84
2023-01-08T14:51:09.286Z,99111.69
2023-01-08T14:56:14.611Z,99105.16
2023-01-08T15:01:19.729Z,99108.97
2023-01-08T15:06:26.322Z,99102.44
2023-01-08T15:11:31.979Z,99105.22
2023-01-08T15:16:38.731Z,99097.41
2023-01-08T15:21:46.955Z,99088.28
2023-01-08T15:26:51.399Z,99078.00
2023-01-08T15:31:54.471Z,99090.16
2023-01-08T15:36:57.237Z,99097.72
2023-01-08T15:42:27.573Z,99089.38
2023-01-08T15:47:30.271Z,99083.34
2023-01-08T15:52:33.448Z,99093.81
2023-01-08T15:57:39.780Z,99096.06
2023-01-08T16:02:46.473Z,99084.59
2023-01-08T16:07:49.715Z,99066.63
2023-01-08T16:12:53.938Z,99068.75
2023-01-08T16:17:56.894Z,99074.19
2023-01-08T16:22:59.796Z,99075.69
2023-01-08T16:28:04.161Z,99071.47
2023-01-08T16:33:07.006Z,99072.16
2023-01-08T16:38:10.786Z,99054.97
2023-01-08T16:43:14.900Z,99064.97
2023-01-08T16:48:17.864Z,99052.88
2023-01-08T16:53:21.870Z,99050.44
2023-01-08T16:58:26.034Z,99049.44
2023-01-08T17:03:28.957Z,99051.22
2023-01-08T17:08:31.721Z,99049.13
2023-01-08T17:13:35.932Z,99042.25
2023-01-08T17:18:38.997Z,99032.94
2023-01-08T17:23:41.966Z,99018.09
2023-01-08T17:28:47.116Z,99033.63
2023-01-08T17:33:51.057Z,99032.13
2023-01-08T17:38:54.520Z,99014.78
2023-01-08T17:44:01.882Z,99011.03
2023-01-08T17:49:04.680Z,99022.50
2023-01-08T17:54:09.740Z,99015.13
2023-01-08T17:59:15.700Z,99011.50
2023-01-08T18:04:18.505Z,98993.56
2023-01-08T18:09:21.620Z,98986.84
2023-01-08T18:14:25.784Z,98990.28
2023-01-08T18:19:28.547Z,98990.75
2023-01-08T18:24:31.503Z,98996.63
2023-01-08T18:29:35.736Z,98976.22
2023-01-08T18:34:38.827Z,98982.72
2023-01-08T18:39:45.706Z,98977.31
2023-01-08T18:44:52.546Z,98982.72
2023-01-08T18:49:55.927Z,98975.84
2023-01-08T18:54:58.725Z,98958.88
2023-01-08T19:00:04.520Z,98956.41
2023-01-08T19:05:08.013Z,98949.09
2023-01-08T19:10:12.374Z,98948.75
2023-01-08T19:15:16.686Z,98940.72
2023-01-08T19:20:19.619Z,98944.16
2023-01-08T19:25:22.476Z,98929.59
2023-01-08T19:30:26.682Z,98928.78
2023-01-08T19:35:29.535Z,98910.66
2023-01-08T19:40:32.353Z,98910.66
2023-01-08T19:45:37.960Z,98903.59
2023-01-08T19:50:41.108Z,98898.81
2023-01-08T19:55:45.269Z,98898.03
2023-01-08T20:00:49.460Z,98890.34
2023-01-08T20:05:52.267Z,98872.38
2023-01-08T20:10:55.082Z,98868.78
2023-01-08T20:15:59.221Z,98860.63
2023-01-08T20:21:06.735Z,98865.56
2023-01-08T20:26:12.007Z,98853.31
2023-01-08T20:31:18.996Z,98863.16
2023-01-08T20:36:23.850Z,98857.00
2023-01-08T20:41:27.232Z,98855.19
2023-01-08T20:46:31.444Z,98843.59
2023-01-08T20:51:39.552Z,98847.22
2023-01-08T20:56:42.693Z,98851.63
2023-01-08T21:01:46.870Z,98847.25
2023-01-08T21:06:49.944Z,98847.13
2023-01-08T21:11:52.839Z,98838.09
2023-01-08T21:16:57.327Z,98833.88
2023-01-08T21:22:00.051Z,98820.31
2023-01-08T21:27:03.470Z,98808.09
2023-01-08T21:32:08.027Z,98800.72
2023-01-08T21:37:10.863Z,98786.84
2023-01-08T21:42:31.341Z,98774.13
2023-01-08T21:47:35.421Z,98763.66
2023-01-08T21:52:55.156Z,98758.44
2023-01-08T21:57:57.853Z,98760.59
2023-01-08T22:03:01.974Z,98762.38
2023-01-08T22:08:05.433Z,98760.41
2023-01-08T22:13:13.404Z,98758.97
2023-01-08T22:18:17.691Z,98755.50
2023-01-08T22:23:20.385Z,98748.66
2023-01-08T22:28:23.316Z,98750.47
2023-01-08T22:33:27.402Z,98742.81
2023-01-08T22:38:30.181Z,98750.16
2023-01-08T22:43:37.811Z,98737.16
2023-01-08T22:48:41.987Z,98734.94
2023-01-08T22:53:45.146Z,98718.81
2023-01-08T22:58:47.911Z,98715.56
2023-01-08T23:03:52.336Z,98721.44
2023-01-08T23:08:56.126Z,98717.97
2023-01-08T23:14:00.882Z,98700.00
2023-01-08T23:19:04.942Z,98694.31
2023-01-08T23:24:08.840Z,98684.84
2023-01-08T23:29:11.886Z,98682.38
2023-01-08T23:34:16.256Z,98663.44
2023-01-08T23:39:26.561Z,98661.53
2023-01-08T23:44:29.535Z,98649.53
2023-01-08T23:49:34.517Z,98649.53
2023-01-08T23:54:37.301Z,98643.34
2023-01-08T23:59:40.039Z,98627.75
